sensor_id;sensor_type;location;lat;lon;timestamp;temperature;humidity
34558;DHT22;24708;48.888;8.736;2023-03-21T06:31:35;11.60;99.90
34558;DHT22;24708;48.888;8.736;2023-03-21T06:34:02;11.10;99.90
34558;DHT22;24708;48.888;8.736;2023-03-21T06:38:57;11.50;99.90
34558;DHT22;24708;48.888;8.736;2023-03-21T06:41:24;11.80;99.90
34558;DHT22;24708;48.888;8.736;2023-03-21T06:43:52;12.80;99.90
34558;DHT22;24708;48.888;8.736;2023-03-21T06:46:20;13.60;99.90
34558;DHT22;24708;48.888;8.736;2023-03-21T06:48:47;14.50;99.90
34558;DHT22;24708;48.888;8.736;2023-03-21T06:51:15;14.40;99.90
34558;DHT22;24708;48.888;8.736;2023-03-21T06:53:42;14.40;99.90
34558;DHT22;24708;48.888;8.736;2023-03-21T06:56:11;14.70;99.90
34558;DHT22;24708;48.888;8.736;2023-03-21T06:58:40;15.40;99.90
34558;DHT22;24708;48.888;8.736;2023-03-21T07:01:08;15.30;99.90
34558;DHT22;24708;48.888;8.736;2023-03-21T07:03:35;14.90;99.90
34558;DHT22;24708;48.888;8.736;2023-03-21T07:06:07;14.80;99.90
34558;DHT22;24708;48.888;8.736;2023-03-21T07:08:39;14.60;99.90
34558;DHT22;24708;48.888;8.736;2023-03-21T07:11:08;14.60;99.90
34558;DHT22;24708;48.888;8.736;2023-03-21T07:13:36;14.60;99.90
34558;DHT22;24708;48.888;8.736;2023-03-21T07:16:05;14.60;99.90
34558;DHT22;24708;48.888;8.736;2023-03-21T07:21:01;14.60;99.90
34558;DHT22;24708;48.888;8.736;2023-03-21T07:23:29;15.40;99.90
34558;DHT22;24708;48.888;8.736;2023-03-21T07:25:57;16.50;99.90
34558;DHT22;24708;48.888;8.736;2023-03-21T07:28:25;17.20;99.90
34558;DHT22;24708;48.888;8.736;2023-03-21T07:30:59;17.00;99.90
34558;DHT22;24708;48.888;8.736;2023-03-21T07:33:27;16.90;99.90
34558;DHT22;24708;48.888;8.736;2023-03-21T07:35:55;16.60;99.90
34558;DHT22;24708;48.888;8.736;2023-03-21T07:38:24;16.70;99.90
34558;DHT22;24708;48.888;8.736;2023-03-21T07:40:53;16.00;99.90
34558;DHT22;24708;48.888;8.736;2023-03-21T07:43:20;17.10;99.90
34558;DHT22;24708;48.888;8.736;2023-03-21T07:45:47;18.20;99.90
34558;DHT22;24708;48.888;8.736;2023-03-21T07:48:15;19.40;97.60
34558;DHT22;24708;48.888;8.736;2023-03-21T07:50:44;20.40;95.80
34558;DHT22;24708;48.888;8.736;2023-03-21T07:53:11;22.50;92.90
34558;DHT22;24708;48.888;8.736;2023-03-21T07:55:39;20.80;91.90
34558;DHT22;24708;48.888;8.736;2023-03-21T07:58:06;22.00;90.70
34558;DHT22;24708;48.888;8.736;2023-03-21T08:00:34;22.10;87.40
34558;DHT22;24708;48.888;8.736;2023-03-21T08:03:01;21.20;87.70
34558;DHT22;24708;48.888;8.736;2023-03-21T08:05:35;21.00;91.80
34558;DHT22;24708;48.888;8.736;2023-03-21T08:08:04;21.10;88.30
34558;DHT22;24708;48.888;8.736;2023-03-21T08:10:33;20.20;85.20
34558;DHT22;24708;48.888;8.736;2023-03-21T08:13:00;20.10;86.40
34558;DHT22;24708;48.888;8.736;2023-03-21T08:15:28;20.60;83.90
34558;DHT22;24708;48.888;8.736;2023-03-21T08:17:58;20.20;83.40
34558;DHT22;24708;48.888;8.736;2023-03-21T08:20:27;21.20;81.60
34558;DHT22;24708;48.888;8.736;2023-03-21T08:22:55;22.40;77.40
34558;DHT22;24708;48.888;8.736;2023-03-21T08:25:23;22.90;76.10
34558;DHT22;24708;48.888;8.736;2023-03-21T08:27:51;21.60;75.90
34558;DHT22;24708;48.888;8.736;2023-03-21T08:30:20;22.00;76.90
34558;DHT22;24708;48.888;8.736;2023-03-21T08:32:48;23.30;71.70
34558;DHT22;24708;48.888;8.736;2023-03-21T08:35:18;22.80;69.10
34558;DHT22;24708;48.888;8.736;2023-03-21T08:37:46;20.90;70.80
34558;DHT22;24708;48.888;8.736;2023-03-21T08:40:16;21.30;72.70
34558;DHT22;24708;48.888;8.736;2023-03-21T08:42:44;21.30;70.90
34558;DHT22;24708;48.888;8.736;2023-03-21T08:45:15;19.90;73.20
34558;DHT22;24708;48.888;8.736;2023-03-21T08:47:43;20.10;73.90
34558;DHT22;24708;48.888;8.736;2023-03-21T08:50:13;20.50;83.30
34558;DHT22;24708;48.888;8.736;2023-03-21T08:52:42;20.50;73.40
34558;DHT22;24708;48.888;8.736;2023-03-21T08:55:11;21.00;72.20
34558;DHT22;24708;48.888;8.736;2023-03-21T08:57:41;20.70;72.10
34558;DHT22;24708;48.888;8.736;2023-03-21T09:00:11;20.60;71.80
34558;DHT22;24708;48.888;8.736;2023-03-21T09:02:43;20.80;71.20
34558;DHT22;24708;48.888;8.736;2023-03-21T09:05:13;21.00;70.40
34558;DHT22;24708;48.888;8.736;2023-03-21T09:07:44;19.90;81.20
34558;DHT22;24708;48.888;8.736;2023-03-21T09:10:15;19.40;73.80
34558;DHT22;24708;48.888;8.736;2023-03-21T09:12:50;19.00;76.20
34558;DHT22;24708;48.888;8.736;2023-03-21T09:15:21;18.60;77.20
34558;DHT22;24708;48.888;8.736;2023-03-21T09:17:54;18.10;80.50
34558;DHT22;24708;48.888;8.736;2023-03-21T09:20:26;17.90;86.80
34558;DHT22;24708;48.888;8.736;2023-03-21T09:22:59;17.80;80.20
34558;DHT22;24708;48.888;8.736;2023-03-21T09:25:28;18.00;82.50
34558;DHT22;24708;48.888;8.736;2023-03-21T09:28:01;17.40;81.70
34558;DHT22;24708;48.888;8.736;2023-03-21T09:30:33;18.10;84.50
34558;DHT22;24708;48.888;8.736;2023-03-21T09:33:05;18.50;82.40
34558;DHT22;24708;48.888;8.736;2023-03-21T09:40:58;18.10;87.70
34558;DHT22;24708;48.888;8.736;2023-03-21T09:49:07;17.10;85.30
34558;DHT22;24708;48.888;8.736;2023-03-21T09:51:43;17.30;85.40
34558;DHT22;24708;48.888;8.736;2023-03-21T09:54:21;17.30;84.90
34558;DHT22;24708;48.888;8.736;2023-03-21T09:56:51;17.00;86.80
34558;DHT22;24708;48.888;8.736;2023-03-21T09:59:41;17.00;84.30
34558;DHT22;24708;48.888;8.736;2023-03-21T10:02:34;17.00;86.60
34558;DHT22;24708;48.888;8.736;2023-03-21T10:05:16;16.70;86.40
34558;DHT22;24708;48.888;8.736;2023-03-21T10:10:26;16.90;90.40
34558;DHT22;24708;48.888;8.736;2023-03-21T10:12:56;17.40;86.40
34558;DHT22;24708;48.888;8.736;2023-03-21T10:15:25;16.70;86.50
34558;DHT22;24708;48.888;8.736;2023-03-21T10:18:05;16.60;87.00
34558;DHT22;24708;48.888;8.736;2023-03-21T10:20:35;16.90;88.50
34558;DHT22;24708;48.888;8.736;2023-03-21T10:23:10;17.10;86.60
34558;DHT22;24708;48.888;8.736;2023-03-21T10:25:51;16.90;85.70
34558;DHT22;24708;48.888;8.736;2023-03-21T10:28:34;17.00;86.60
34558;DHT22;24708;48.888;8.736;2023-03-21T10:31:25;16.90;86.80
34558;DHT22;24708;48.888;8.736;2023-03-21T10:33:56;16.90;88.00
34558;DHT22;24708;48.888;8.736;2023-03-21T10:36:29;17.20;86.10
34558;DHT22;24708;48.888;8.736;2023-03-21T10:42:03;17.40;93.40
34558;DHT22;24708;48.888;8.736;2023-03-21T10:44:35;16.80;88.90
34558;DHT22;24708;48.888;8.736;2023-03-21T10:47:08;16.90;93.10
34558;DHT22;24708;48.888;8.736;2023-03-21T10:49:38;16.50;94.50
34558;DHT22;24708;48.888;8.736;2023-03-21T10:52:29;16.30;95.00
34558;DHT22;24708;48.888;8.736;2023-03-21T10:55:28;15.90;97.50
34558;DHT22;24708;48.888;8.736;2023-03-21T10:58:03;15.90;92.70
34558;DHT22;24708;48.888;8.736;2023-03-21T11:00:36;15.60;97.60
34558;DHT22;24708;48.888;8.736;2023-03-21T11:03:06;15.80;96.80
34558;DHT22;24708;48.888;8.736;2023-03-21T11:05:42;15.80;93.00
34558;DHT22;24708;48.888;8.736;2023-03-21T11:08:17;15.80;92.20
34558;DHT22;24708;48.888;8.736;2023-03-21T11:11:03;15.80;92.40
34558;DHT22;24708;48.888;8.736;2023-03-21T11:13:43;15.80;91.80
34558;DHT22;24708;48.888;8.736;2023-03-21T11:16:23;15.70;92.10
34558;DHT22;24708;48.888;8.736;2023-03-21T11:18:59;15.80;97.90
34558;DHT22;24708;48.888;8.736;2023-03-21T11:21:35;16.20;97.20
34558;DHT22;24708;48.888;8.736;2023-03-21T11:24:07;16.60;97.90
34558;DHT22;24708;48.888;8.736;2023-03-21T11:26:43;15.80;93.10
34558;DHT22;24708;48.888;8.736;2023-03-21T11:29:35;15.60;98.50
34558;DHT22;24708;48.888;8.736;2023-03-21T11:34:50;15.50;98.30
34558;DHT22;24708;48.888;8.736;2023-03-21T11:37:27;15.60;99.10
34558;DHT22;24708;48.888;8.736;2023-03-21T11:40:17;15.70;98.80
34558;DHT22;24708;48.888;8.736;2023-03-21T11:42:51;15.70;99.80
34558;DHT22;24708;48.888;8.736;2023-03-21T11:45:33;15.60;94.40
34558;DHT22;24708;48.888;8.736;2023-03-21T11:48:12;15.40;99.90
34558;DHT22;24708;48.888;8.736;2023-03-21T11:50:46;15.20;95.00
34558;DHT22;24708;48.888;8.736;2023-03-21T11:53:32;15.30;94.90
34558;DHT22;24708;48.888;8.736;2023-03-21T12:02:03;16.50;94.00
34558;DHT22;24708;48.888;8.736;2023-03-21T12:13:50;16.30;95.90
34558;DHT22;24708;48.888;8.736;2023-03-21T12:21:57;17.20;98.50
34558;DHT22;24708;48.888;8.736;2023-03-21T12:24:36;17.00;93.50
34558;DHT22;24708;48.888;8.736;2023-03-21T12:30:09;17.30;93.20
34558;DHT22;24708;48.888;8.736;2023-03-21T12:32:42;17.80;97.00
34558;DHT22;24708;48.888;8.736;2023-03-21T12:46:18;17.50;93.70
34558;DHT22;24708;48.888;8.736;2023-03-21T12:51:41;17.20;99.00
34558;DHT22;24708;48.888;8.736;2023-03-21T12:56:58;17.20;93.50
34558;DHT22;24708;48.888;8.736;2023-03-21T12:59:35;16.40;98.60
34558;DHT22;24708;48.888;8.736;2023-03-21T13:02:31;16.60;98.70
34558;DHT22;24708;48.888;8.736;2023-03-21T13:05:26;16.80;94.10
34558;DHT22;24708;48.888;8.736;2023-03-21T13:08:03;16.80;94.10
34558;DHT22;24708;48.888;8.736;2023-03-21T13:10:34;16.80;94.10
34558;DHT22;24708;48.888;8.736;2023-03-21T13:16:43;17.00;94.10
34558;DHT22;24708;48.888;8.736;2023-03-21T13:22:14;17.20;98.50
34558;DHT22;24708;48.888;8.736;2023-03-21T13:28:00;16.90;94.30
34558;DHT22;24708;48.888;8.736;2023-03-21T13:30:31;16.80;94.00
34558;DHT22;24708;48.888;8.736;2023-03-21T13:35:43;16.30;99.60
34558;DHT22;24708;48.888;8.736;2023-03-21T13:38:26;16.30;95.60
34558;DHT22;24708;48.888;8.736;2023-03-21T13:41:17;16.30;96.30
34558;DHT22;24708;48.888;8.736;2023-03-21T13:46:42;17.50;95.20
34558;DHT22;24708;48.888;8.736;2023-03-21T13:49:35;16.70;95.00
34558;DHT22;24708;48.888;8.736;2023-03-21T13:59:45;16.80;94.90
34558;DHT22;24708;48.888;8.736;2023-03-21T14:02:20;16.60;94.80
34558;DHT22;24708;48.888;8.736;2023-03-21T14:05:19;16.40;95.90
34558;DHT22;24708;48.888;8.736;2023-03-21T14:07:49;16.50;99.90
34558;DHT22;24708;48.888;8.736;2023-03-21T14:10:34;16.50;96.40
34558;DHT22;24708;48.888;8.736;2023-03-21T14:13:07;16.90;99.90
34558;DHT22;24708;48.888;8.736;2023-03-21T14:15:44;16.70;94.90
34558;DHT22;24708;48.888;8.736;2023-03-21T14:18:24;16.80;95.00
34558;DHT22;24708;48.888;8.736;2023-03-21T14:21:24;16.90;97.10
34558;DHT22;24708;48.888;8.736;2023-03-21T14:24:02;17.00;99.90
34558;DHT22;24708;48.888;8.736;2023-03-21T14:26:32;17.00;99.90
34558;DHT22;24708;48.888;8.736;2023-03-21T14:29:02;16.70;99.90
34558;DHT22;24708;48.888;8.736;2023-03-21T14:31:34;16.30;99.90
34558;DHT22;24708;48.888;8.736;2023-03-21T14:34:03;16.70;95.40
34558;DHT22;24708;48.888;8.736;2023-03-21T14:36:32;17.00;99.90
34558;DHT22;24708;48.888;8.736;2023-03-21T14:39:14;16.90;99.90
34558;DHT22;24708;48.888;8.736;2023-03-21T14:41:49;16.60;99.90
34558;DHT22;24708;48.888;8.736;2023-03-21T14:44:23;16.80;99.90
34558;DHT22;24708;48.888;8.736;2023-03-21T14:47:38;16.70;99.90
34558;DHT22;24708;48.888;8.736;2023-03-21T14:49:41;16.60;99.90
34558;DHT22;24708;48.888;8.736;2023-03-21T14:52:12;16.40;99.90
34558;DHT22;24708;48.888;8.736;2023-03-21T14:54:41;16.60;96.40
34558;DHT22;24708;48.888;8.736;2023-03-21T14:57:13;16.60;96.60
34558;DHT22;24708;48.888;8.736;2023-03-21T14:59:41;16.80;99.90
34558;DHT22;24708;48.888;8.736;2023-03-21T15:02:19;16.50;99.90
34558;DHT22;24708;48.888;8.736;2023-03-21T15:04:50;16.40;99.90
34558;DHT22;24708;48.888;8.736;2023-03-21T15:07:32;16.40;99.90
34558;DHT22;24708;48.888;8.736;2023-03-21T15:10:07;16.60;96.60
34558;DHT22;24708;48.888;8.736;2023-03-21T15:12:35;16.70;96.30
34558;DHT22;24708;48.888;8.736;2023-03-21T15:15:03;16.50;99.90
34558;DHT22;24708;48.888;8.736;2023-03-21T15:17:31;16.10;99.90
34558;DHT22;24708;48.888;8.736;2023-03-21T15:19:59;16.10;99.90
34558;DHT22;24708;48.888;8.736;2023-03-21T15:22:34;16.20;99.90
34558;DHT22;24708;48.888;8.736;2023-03-21T15:25:10;16.20;97.20
34558;DHT22;24708;48.888;8.736;2023-03-21T15:27:41;16.10;97.60
34558;DHT22;24708;48.888;8.736;2023-03-21T15:30:24;16.20;99.90
34558;DHT22;24708;48.888;8.736;2023-03-21T15:32:56;16.30;99.90
34558;DHT22;24708;48.888;8.736;2023-03-21T15:35:33;16.00;97.60
34558;DHT22;24708;48.888;8.736;2023-03-21T15:38:01;15.90;99.90
34558;DHT22;24708;48.888;8.736;2023-03-21T15:40:33;15.80;99.90
34558;DHT22;24708;48.888;8.736;2023-03-21T15:43:15;15.80;99.90
34558;DHT22;24708;48.888;8.736;2023-03-21T15:45:49;15.80;99.90
34558;DHT22;24708;48.888;8.736;2023-03-21T15:48:21;15.70;99.90
34558;DHT22;24708;48.888;8.736;2023-03-21T15:51:04;16.00;99.90
34558;DHT22;24708;48.888;8.736;2023-03-21T15:53:34;15.80;99.90
34558;DHT22;24708;48.888;8.736;2023-03-21T15:56:03;15.70;99.90
34558;DHT22;24708;48.888;8.736;2023-03-21T15:58:35;16.10;99.90
34558;DHT22;24708;48.888;8.736;2023-03-21T16:01:15;16.10;99.90
34558;DHT22;24708;48.888;8.736;2023-03-21T16:03:46;17.70;99.90
34558;DHT22;24708;48.888;8.736;2023-03-21T16:06:17;15.50;99.90
34558;DHT22;24708;48.888;8.736;2023-03-21T16:08:49;15.50;99.90
34558;DHT22;24708;48.888;8.736;2023-03-21T16:11:24;15.10;99.90
34558;DHT22;24708;48.888;8.736;2023-03-21T16:13:53;15.10;99.90
34558;DHT22;24708;48.888;8.736;2023-03-21T16:16:23;15.40;99.90
34558;DHT22;24708;48.888;8.736;2023-03-21T16:18:52;14.90;99.90
34558;DHT22;24708;48.888;8.736;2023-03-21T16:21:23;14.70;99.90
34558;DHT22;24708;48.888;8.736;2023-03-21T16:26:23;14.90;99.90
34558;DHT22;24708;48.888;8.736;2023-03-21T16:28:51;15.20;99.90
34558;DHT22;24708;48.888;8.736;2023-03-21T16:31:27;15.10;99.90
34558;DHT22;24708;48.888;8.736;2023-03-21T16:33:55;16.00;99.90
34558;DHT22;24708;48.888;8.736;2023-03-21T16:36:36;15.10;99.90
34558;DHT22;24708;48.888;8.736;2023-03-21T16:39:18;15.10;99.90
34558;DHT22;24708;48.888;8.736;2023-03-21T16:41:47;14.90;99.90
34558;DHT22;24708;48.888;8.736;2023-03-21T16:46:43;15.00;99.90
34558;DHT22;24708;48.888;8.736;2023-03-21T16:49:23;15.00;96.30
34558;DHT22;24708;48.888;8.736;2023-03-21T16:51:53;14.90;99.90
34558;DHT22;24708;48.888;8.736;2023-03-21T16:54:22;15.00;96.50
34558;DHT22;24708;48.888;8.736;2023-03-21T16:56:52;14.90;96.50
34558;DHT22;24708;48.888;8.736;2023-03-21T16:59:21;14.60;99.90
